createdAt,value
2022-09-06T00:00:17.966Z,1.63
2022-09-06T00:01:23.303Z,1.45
2022-09-06T00:02:25.544Z,1.25
2022-09-06T00:03:28.745Z,1.27
2022-09-06T00:04:30.830Z,1.60
2022-09-06T00:05:36.117Z,1.30
2022-09-06T00:06:38.108Z,1.30
2022-09-06T00:07:41.458Z,1.10
2022-09-06T00:08:44.922Z,1.48
2022-09-06T00:09:47.938Z,1.48
2022-09-06T00:11:00.850Z,1.60
2022-09-06T00:12:04.597Z,6.95
2022-09-06T00:13:08.482Z,1.52
2022-09-06T00:14:11.370Z,5.82
2022-09-06T00:15:13.699Z,13.60
2022-09-06T00:16:19.560Z,1.30
2022-09-06T00:17:22.183Z,1.55
2022-09-06T00:18:25.294Z,1.40
2022-09-06T00:19:28.036Z,1.83
2022-09-06T00:20:32.310Z,4.38
2022-09-06T00:21:35.996Z,1.40
2022-09-06T00:22:39.917Z,1.38
2022-09-06T00:23:42.173Z,1.50
2022-09-06T00:24:45.155Z,1.30
2022-09-06T00:25:48.072Z,1.80
2022-09-06T00:26:50.175Z,1.60
2022-09-06T00:27:57.737Z,1.35
2022-09-06T00:29:00.132Z,1.20
2022-09-06T00:30:04.854Z,1.15
2022-09-06T00:31:12.887Z,1.25
2022-09-06T00:32:15.081Z,1.40
2022-09-06T00:33:18.085Z,1.25
2022-09-06T00:34:20.111Z,1.30
2022-09-06T00:35:24.920Z,1.20
2022-09-06T00:36:28.363Z,1.48
2022-09-06T00:37:31.891Z,1.20
2022-09-06T00:38:34.814Z,1.80
2022-09-06T00:39:36.986Z,1.38
2022-09-06T00:40:40.501Z,1.00
2022-09-06T00:41:42.460Z,1.30
2022-09-06T00:42:45.403Z,1.15
2022-09-06T00:43:47.625Z,1.15
2022-09-06T00:44:51.370Z,1.25
2022-09-06T00:45:54.679Z,1.25
2022-09-06T00:46:57.707Z,1.10
2022-09-06T00:48:01.085Z,1.20
2022-09-06T00:49:08.391Z,1.15
2022-09-06T00:50:11.891Z,0.90
2022-09-06T00:51:17.220Z,1.00
2022-09-06T00:52:20.991Z,1.40
2022-09-06T00:53:26.502Z,1.33
2022-09-06T00:54:28.781Z,1.10
2022-09-06T00:55:32.278Z,1.23
2022-09-06T00:56:38.127Z,1.20
2022-09-06T00:57:42.002Z,1.17
2022-09-06T00:58:44.205Z,1.00
2022-09-06T00:59:48.236Z,1.42
2022-09-06T01:00:51.002Z,1.02
2022-09-06T01:01:54.422Z,1.15
2022-09-06T01:02:56.597Z,1.20
2022-09-06T01:03:59.858Z,1.20
2022-09-06T01:05:03.305Z,1.02
2022-09-06T01:06:20.155Z,1.27
2022-09-06T01:07:33.769Z,1.20
2022-09-06T01:08:52.856Z,1.25
2022-09-06T01:10:06.958Z,1.20
2022-09-06T01:11:24.646Z,1.20
2022-09-06T01:12:37.812Z,1.30
2022-09-06T01:13:50.364Z,0.95
2022-09-06T01:15:06.122Z,1.20
2022-09-06T01:16:18.708Z,1.20
2022-09-06T01:17:29.053Z,0.95
2022-09-06T01:18:45.091Z,1.10
2022-09-06T01:20:20.018Z,1.20
2022-09-06T01:21:37.181Z,1.20
2022-09-06T01:23:25.507Z,1.25
2022-09-06T01:24:55.229Z,1.10
2022-09-06T01:26:08.971Z,1.30
2022-09-06T01:27:47.447Z,1.00
2022-09-06T01:28:50.838Z,1.10
2022-09-06T01:29:59.608Z,1.23
2022-09-06T01:31:15.072Z,1.10
2022-09-06T01:32:26.718Z,1.27
2022-09-06T01:33:37.598Z,1.10
2022-09-06T01:34:45.703Z,0.95
2022-09-06T01:35:51.868Z,1.00
2022-09-06T01:37:13.461Z,1.10
2022-09-06T01:38:17.565Z,1.10
2022-09-06T01:39:23.806Z,1.00
2022-09-06T01:40:27.776Z,1.20
2022-09-06T01:41:30.675Z,1.00
2022-09-06T01:42:35.580Z,1.05
2022-09-06T01:43:42.686Z,0.90
2022-09-06T01:44:52.030Z,1.02
2022-09-06T01:46:01.935Z,1.10
2022-09-06T01:47:16.868Z,1.00
2022-09-06T01:48:30.377Z,1.05
2022-09-06T01:49:45.302Z,0.88
2022-09-06T01:50:59.060Z,1.15
2022-09-06T01:52:13.028Z,0.90
2022-09-06T01:53:29.849Z,1.10
2022-09-06T01:54:44.248Z,1.20
2022-09-06T01:55:52.137Z,0.90
2022-09-06T01:57:07.240Z,0.80
2022-09-06T01:58:26.625Z,0.80
2022-09-06T01:59:47.772Z,1.10
2022-09-06T02:00:57.858Z,1.10
2022-09-06T02:02:07.991Z,1.20
2022-09-06T02:03:20.422Z,0.98
2022-09-06T02:04:29.109Z,1.17
2022-09-06T02:05:39.542Z,1.02
2022-09-06T02:06:46.159Z,0.93
2022-09-06T02:07:52.649Z,0.90
2022-09-06T02:09:01.972Z,1.30
2022-09-06T02:10:10.879Z,1.10
2022-09-06T02:11:16.527Z,1.10
2022-09-06T02:12:20.143Z,1.02
2022-09-06T02:13:25.398Z,1.00
2022-09-06T02:14:31.865Z,1.00
2022-09-06T02:15:40.063Z,1.10
2022-09-06T02:16:45.859Z,1.08
2022-09-06T02:17:53.616Z,0.90
2022-09-06T02:19:00.950Z,0.95
2022-09-06T02:20:09.446Z,0.80
2022-09-06T02:21:15.331Z,1.10
2022-09-06T02:22:23.776Z,0.82
2022-09-06T02:23:29.186Z,1.48
2022-09-06T02:24:34.700Z,1.00
2022-09-06T02:25:39.536Z,0.95
2022-09-06T02:26:44.564Z,1.20
2022-09-06T02:27:46.973Z,0.98
2022-09-06T02:28:50.451Z,1.20
2022-09-06T02:29:52.916Z,0.95
2022-09-06T02:31:02.499Z,1.00
2022-09-06T02:32:12.278Z,1.33
2022-09-06T02:33:18.651Z,1.20
2022-09-06T02:34:21.685Z,0.82
2022-09-06T02:35:25.393Z,1.10
2022-09-06T02:36:27.661Z,1.20
2022-09-06T02:37:30.607Z,1.15
2022-09-06T02:38:35.287Z,1.55
2022-09-06T02:39:39.820Z,1.05
2022-09-06T02:40:43.228Z,1.20
2022-09-06T02:41:48.179Z,0.90
2022-09-06T02:42:50.295Z,1.10
2022-09-06T02:43:53.291Z,1.00
2022-09-06T02:44:55.343Z,1.00
2022-09-06T02:45:59.618Z,1.17
2022-09-06T02:47:03.332Z,0.98
2022-09-06T02:48:06.534Z,0.90
2022-09-06T02:49:08.600Z,1.00
2022-09-06T02:50:13.214Z,1.00
2022-09-06T02:51:15.414Z,1.38
2022-09-06T02:52:18.478Z,1.23
2022-09-06T02:53:20.495Z,1.10
2022-09-06T02:54:23.542Z,1.10
2022-09-06T02:55:25.635Z,1.05
2022-09-06T02:56:28.579Z,0.93
2022-09-06T02:57:30.658Z,1.30
2022-09-06T02:58:33.676Z,0.90
2022-09-06T02:59:36.500Z,1.25
2022-09-06T03:00:39.788Z,1.40
2022-09-06T03:01:43.217Z,1.10
2022-09-06T03:02:46.382Z,1.02
2022-09-06T03:03:48.574Z,1.00
2022-09-06T03:04:51.563Z,1.40
2022-09-06T03:05:54.999Z,1.10
2022-09-06T03:06:58.129Z,1.17
2022-09-06T03:08:00.188Z,1.10
2022-09-06T03:09:03.427Z,1.20
2022-09-06T03:10:06.331Z,1.30
2022-09-06T03:11:09.371Z,1.25
2022-09-06T03:12:11.464Z,1.20
2022-09-06T03:13:14.420Z,1.13
2022-09-06T03:14:17.190Z,1.08
2022-09-06T03:15:20.235Z,1.25
2022-09-06T03:16:22.597Z,1.00
2022-09-06T03:17:27.006Z,1.13
2022-09-06T03:18:30.569Z,1.02
2022-09-06T03:19:33.577Z,1.20
2022-09-06T03:20:37.205Z,1.00
2022-09-06T03:21:40.416Z,1.30
2022-09-06T03:22:42.465Z,1.17
2022-09-06T03:23:45.901Z,1.20
2022-09-06T03:24:49.316Z,0.95
2022-09-06T03:25:52.660Z,1.25
2022-09-06T03:26:54.980Z,1.15
2022-09-06T03:27:57.967Z,1.40
2022-09-06T03:29:00.121Z,1.20
2022-09-06T03:30:03.376Z,1.38
2022-09-06T03:31:05.997Z,1.23
2022-09-06T03:32:09.049Z,1.02
2022-09-06T03:33:13.900Z,1.27
2022-09-06T03:34:16.990Z,1.20
2022-09-06T03:35:19.010Z,1.10
2022-09-06T03:36:22.358Z,1.25
2022-09-06T03:37:24.434Z,1.33
2022-09-06T03:38:28.612Z,1.20
2022-09-06T03:39:30.972Z,1.17
2022-09-06T03:40:33.999Z,1.15
2022-09-06T03:41:36.182Z,1.20
2022-09-06T03:42:39.203Z,1.20
2022-09-06T03:43:41.314Z,1.17
2022-09-06T03:44:44.295Z,1.40
2022-09-06T03:45:47.495Z,1.25
2022-09-06T03:46:51.634Z,1.25
2022-09-06T03:47:53.690Z,1.13
2022-09-06T03:48:58.076Z,1.13
2022-09-06T03:50:00.165Z,1.15
2022-09-06T03:51:03.151Z,1.20
2022-09-06T03:52:06.028Z,1.20
2022-09-06T03:53:09.070Z,1.58
2022-09-06T03:54:11.121Z,1.52
2022-09-06T03:55:14.180Z,1.40
2022-09-06T03:56:16.438Z,1.23
2022-09-06T03:57:19.438Z,1.13
2022-09-06T03:58:23.478Z,1.00
2022-09-06T03:59:26.668Z,1.20
2022-09-06T04:00:28.797Z,1.30
2022-09-06T04:01:32.054Z,1.20
2022-09-06T04:02:34.182Z,1.10
2022-09-06T04:03:38.060Z,1.30
2022-09-06T04:04:41.509Z,1.05
2022-09-06T04:05:46.382Z,1.20
2022-09-06T04:06:49.340Z,1.23
2022-09-06T04:07:51.632Z,1.30
2022-09-06T04:08:55.283Z,1.45
2022-09-06T04:09:57.271Z,1.00
2022-09-06T04:11:01.089Z,1.30
2022-09-06T04:12:03.583Z,1.45
2022-09-06T04:13:06.578Z,1.23
2022-09-06T04:14:09.677Z,1.23
2022-09-06T04:15:11.887Z,1.10
2022-09-06T04:16:14.870Z,1.10
2022-09-06T04:17:17.972Z,1.35
2022-09-06T04:18:21.413Z,1.60
2022-09-06T04:19:24.746Z,1.20
2022-09-06T04:20:28.069Z,1.30
2022-09-06T04:21:31.371Z,1.10
2022-09-06T04:22:33.382Z,1.20
2022-09-06T04:23:39.828Z,1.10
2022-09-06T04:24:42.336Z,1.20
2022-09-06T04:25:48.419Z,1.40
2022-09-06T04:26:50.491Z,1.30
2022-09-06T04:27:53.448Z,1.40
2022-09-06T04:28:55.428Z,1.30
2022-09-06T04:29:58.485Z,1.70
2022-09-06T04:31:04.585Z,1.67
2022-09-06T04:32:08.191Z,1.30
2022-09-06T04:33:10.512Z,1.38
2022-09-06T04:34:13.905Z,1.10
2022-09-06T04:35:16.039Z,1.40
2022-09-06T04:36:20.356Z,1.15
2022-09-06T04:37:22.427Z,1.40
2022-09-06T04:38:26.199Z,1.45
2022-09-06T04:39:28.306Z,1.30
2022-09-06T04:40:31.353Z,1.27
2022-09-06T04:41:33.482Z,1.33
2022-09-06T04:42:36.845Z,1.55
2022-09-06T04:43:39.140Z,1.40
2022-09-06T04:44:42.733Z,1.35
2022-09-06T04:45:45.034Z,1.50
2022-09-06T04:46:49.015Z,1.52
2022-09-06T04:47:51.620Z,1.30
2022-09-06T04:48:55.747Z,1.40
2022-09-06T04:49:57.893Z,1.30
2022-09-06T04:51:00.994Z,1.50
2022-09-06T04:52:04.826Z,1.50
2022-09-06T04:53:08.169Z,1.10
2022-09-06T04:54:10.168Z,1.30
2022-09-06T04:55:13.296Z,1.10
2022-09-06T04:56:18.300Z,1.23
2022-09-06T04:57:21.217Z,1.50
2022-09-06T04:58:23.213Z,1.30
2022-09-06T04:59:26.239Z,1.27
2022-09-06T05:00:29.774Z,1.60
2022-09-06T05:01:32.868Z,1.45
2022-09-06T05:02:35.678Z,1.15
2022-09-06T05:03:38.823Z,1.27
2022-09-06T05:04:40.851Z,1.40
2022-09-06T05:05:44.086Z,1.40
2022-09-06T05:06:46.134Z,1.15
2022-09-06T05:07:53.515Z,1.30
2022-09-06T05:08:55.631Z,1.40
2022-09-06T05:09:58.589Z,1.35
2022-09-06T05:11:00.547Z,1.55
2022-09-06T05:12:04.710Z,1.55
2022-09-06T05:13:06.835Z,1.33
2022-09-06T05:14:09.803Z,1.48
2022-09-06T05:15:11.908Z,1.30
2022-09-06T05:16:15.325Z,1.10
2022-09-06T05:17:17.449Z,1.48
2022-09-06T05:18:20.720Z,1.60
2022-09-06T05:19:23.138Z,1.30
2022-09-06T05:20:26.175Z,1.50
2022-09-06T05:21:28.267Z,1.20
2022-09-06T05:22:31.373Z,1.60
2022-09-06T05:23:35.986Z,1.40
2022-09-06T05:24:38.237Z,1.35
2022-09-06T05:25:41.277Z,1.15
2022-09-06T05:26:43.357Z,1.30
2022-09-06T05:27:46.575Z,1.30
2022-09-06T05:28:48.726Z,1.30
2022-09-06T05:29:52.034Z,1.30
2022-09-06T05:30:54.330Z,1.50
2022-09-06T05:31:58.414Z,2.10
2022-09-06T05:33:00.549Z,2.20
2022-09-06T05:34:03.673Z,18.77
2022-09-06T05:35:05.864Z,1.42
2022-09-06T05:36:09.380Z,1.25
2022-09-06T05:37:11.573Z,1.70
2022-09-06T05:38:14.521Z,1.40
2022-09-06T05:39:21.137Z,1.27
2022-09-06T05:40:23.504Z,1.35
2022-09-06T05:41:27.135Z,1.40
2022-09-06T05:42:29.177Z,1.50
2022-09-06T05:43:32.404Z,1.30
2022-09-06T05:44:35.069Z,1.20
2022-09-06T05:45:38.303Z,1.33
2022-09-06T05:46:42.629Z,1.05
2022-09-06T05:47:46.364Z,1.58
2022-09-06T05:48:54.423Z,1.40
2022-09-06T05:49:58.040Z,1.50
2022-09-06T05:51:02.510Z,1.50
2022-09-06T05:52:06.325Z,1.20
2022-09-06T05:53:08.462Z,1.40
2022-09-06T05:54:12.384Z,1.13
2022-09-06T05:55:16.083Z,1.45
2022-09-06T05:56:21.850Z,1.00
2022-09-06T05:57:24.622Z,1.17
2022-09-06T05:58:27.696Z,1.25
2022-09-06T05:59:29.912Z,1.30
2022-09-06T06:00:33.044Z,1.30
2022-09-06T06:01:35.946Z,1.15
2022-09-06T06:02:39.890Z,1.20
2022-09-06T06:03:43.478Z,1.15
2022-09-06T06:04:46.501Z,1.05
2022-09-06T06:05:48.594Z,1.35
2022-09-06T06:06:52.019Z,1.25
2022-09-06T06:07:55.626Z,1.17
2022-09-06T06:08:59.397Z,1.30
2022-09-06T06:10:01.859Z,1.45
2022-09-06T06:11:06.693Z,1.15
2022-09-06T06:12:09.015Z,1.20
2022-09-06T06:13:12.097Z,1.08
2022-09-06T06:14:14.496Z,1.13
2022-09-06T06:15:17.971Z,1.48
2022-09-06T06:16:22.118Z,1.58
2022-09-06T06:17:25.396Z,1.30
2022-09-06T06:18:28.836Z,1.30
2022-09-06T06:19:32.044Z,1.20
2022-09-06T06:20:34.299Z,0.90
2022-09-06T06:21:38.478Z,1.15
2022-09-06T06:22:40.553Z,1.30
2022-09-06T06:23:45.510Z,1.33
2022-09-06T06:24:47.816Z,1.02
2022-09-06T06:25:50.888Z,1.30
2022-09-06T06:26:55.709Z,1.15
2022-09-06T06:27:58.023Z,1.25
2022-09-06T06:29:02.480Z,1.13
2022-09-06T06:30:05.284Z,1.48
2022-09-06T06:31:10.772Z,1.20
2022-09-06T06:32:13.185Z,1.10
2022-09-06T06:33:16.220Z,1.15
2022-09-06T06:34:21.924Z,1.52
2022-09-06T06:35:24.876Z,1.25
2022-09-06T06:36:31.025Z,1.05
2022-09-06T06:37:33.321Z,1.10
2022-09-06T06:38:39.559Z,1.25
2022-09-06T06:39:42.797Z,1.30
2022-09-06T06:40:45.809Z,1.17
2022-09-06T06:41:50.705Z,1.48
2022-09-06T06:43:03.115Z,1.33
2022-09-06T06:44:06.850Z,1.30
2022-09-06T06:45:10.843Z,1.23
2022-09-06T06:46:15.114Z,1.30
2022-09-06T06:47:18.456Z,1.10
2022-09-06T06:48:21.391Z,1.13
2022-09-06T06:49:24.722Z,1.10
2022-09-06T06:50:26.971Z,1.00
2022-09-06T06:51:32.006Z,1.20
2022-09-06T06:52:33.951Z,1.20
2022-09-06T06:53:37.054Z,1.10
2022-09-06T06:54:39.088Z,1.17
2022-09-06T06:55:47.041Z,1.45
2022-09-06T06:56:49.103Z,1.63
2022-09-06T06:57:52.314Z,1.50
2022-09-06T06:58:58.755Z,1.30
2022-09-06T07:00:00.860Z,1.00
2022-09-06T07:01:04.135Z,1.30
2022-09-06T07:02:07.970Z,1.10
2022-09-06T07:03:11.220Z,1.15
2022-09-06T07:04:14.302Z,1.45
2022-09-06T07:08:15.326Z,1.45
2022-09-06T07:09:19.870Z,1.30
2022-09-06T07:10:37.298Z,1.58
2022-09-06T07:11:40.283Z,1.70
2022-09-06T07:12:42.438Z,1.48
2022-09-06T07:13:45.531Z,1.40
2022-09-06T07:14:49.146Z,1.30
2022-09-06T07:15:52.384Z,1.10
2022-09-06T07:16:58.331Z,1.30
2022-09-06T07:18:00.566Z,1.67
2022-09-06T07:19:03.938Z,1.30
2022-09-06T07:20:14.778Z,1.52
2022-09-06T07:22:38.990Z,1.50
2022-09-06T07:25:04.880Z,1.48
2022-09-06T07:26:08.383Z,1.48
2022-09-06T07:28:33.442Z,11.13
2022-09-06T07:29:36.339Z,1.77
2022-09-06T07:30:39.651Z,1.20
2022-09-06T07:33:05.271Z,1.70
2022-09-06T07:34:08.181Z,1.50
2022-09-06T07:35:10.213Z,1.70
2022-09-06T07:36:13.179Z,1.70
2022-09-06T07:37:15.248Z,1.40
2022-09-06T07:38:18.425Z,1.30
2022-09-06T07:39:21.971Z,1.40
2022-09-06T07:40:24.825Z,1.50
2022-09-06T07:41:27.986Z,1.25
2022-09-06T07:42:36.393Z,1.80
2022-09-06T07:43:39.707Z,1.55
2022-09-06T07:44:41.781Z,1.70
2022-09-06T07:45:46.219Z,1.48
2022-09-06T07:46:49.383Z,1.75
2022-09-06T07:48:59.301Z,1.80
2022-09-06T07:51:24.448Z,1.80
2022-09-06T07:53:57.896Z,1.90
2022-09-06T07:55:06.428Z,2.10
2022-09-06T07:56:12.475Z,2.00
2022-09-06T07:57:14.529Z,1.70
2022-09-06T07:58:17.680Z,1.90
2022-09-06T07:59:20.634Z,1.80
2022-09-06T08:00:22.688Z,1.80
2022-09-06T08:01:31.710Z,1.73
2022-09-06T08:02:33.844Z,1.80
2022-09-06T08:03:36.877Z,2.05
2022-09-06T08:04:41.016Z,1.80
2022-09-06T08:09:52.932Z,1.90
2022-09-06T08:10:55.070Z,1.55
2022-09-06T08:11:58.001Z,1.70
2022-09-06T08:12:59.972Z,2.05
2022-09-06T08:14:05.242Z,1.95
2022-09-06T08:15:08.528Z,1.83
2022-09-06T08:16:13.952Z,2.00
2022-09-06T08:17:18.320Z,2.22
2022-09-06T08:18:20.492Z,2.08
2022-09-06T08:19:23.877Z,1.83
2022-09-06T08:20:25.880Z,2.45
2022-09-06T08:21:30.526Z,2.30
2022-09-06T08:22:33.336Z,2.33
2022-09-06T08:23:36.516Z,1.80
2022-09-06T08:24:39.455Z,2.63
2022-09-06T08:25:41.677Z,2.08
2022-09-06T08:26:44.693Z,2.10
2022-09-06T08:27:46.803Z,6.57
2022-09-06T08:28:53.859Z,2.15
2022-09-06T08:29:57.714Z,8.15
2022-09-06T08:31:07.254Z,2.40
2022-09-06T08:32:11.126Z,2.20
2022-09-06T08:33:15.646Z,2.13
2022-09-06T08:34:18.617Z,2.42
2022-09-06T08:35:20.576Z,2.25
2022-09-06T08:36:23.814Z,2.10
2022-09-06T08:37:25.774Z,2.10
2022-09-06T08:38:29.677Z,2.35
2022-09-06T08:39:32.690Z,2.10
2022-09-06T08:40:34.801Z,2.30
2022-09-06T08:41:48.320Z,2.33
2022-09-06T08:42:51.035Z,2.08
2022-09-06T08:45:21.721Z,2.05
2022-09-06T08:46:29.837Z,2.40
2022-09-06T08:47:32.906Z,2.30
2022-09-06T08:48:39.895Z,2.30
2022-09-06T08:49:45.011Z,1.95
2022-09-06T08:50:53.678Z,2.05
2022-09-06T08:52:17.347Z,2.20
2022-09-06T08:53:20.355Z,2.05
2022-09-06T08:54:34.516Z,2.30
2022-09-06T08:55:41.508Z,2.08
2022-09-06T08:56:57.835Z,2.53
2022-09-06T08:58:20.399Z,2.20
2022-09-06T08:59:22.955Z,2.10
2022-09-06T09:00:26.142Z,2.15
2022-09-06T09:01:33.792Z,2.33
2022-09-06T09:02:43.874Z,2.35
2022-09-06T09:03:48.358Z,2.30
2022-09-06T09:04:54.511Z,2.25
2022-09-06T09:06:00.012Z,2.22
2022-09-06T09:07:22.040Z,2.42
2022-09-06T09:08:28.626Z,2.00
2022-09-06T09:09:33.360Z,2.17
2022-09-06T09:10:43.481Z,2.50
2022-09-06T09:11:49.895Z,2.20
2022-09-06T09:12:52.836Z,2.67
2022-09-06T09:14:00.378Z,2.40
2022-09-06T09:15:09.232Z,2.50
2022-09-06T09:16:12.845Z,2.30
2022-09-06T09:17:23.337Z,2.47
2022-09-06T09:18:30.032Z,2.38
2022-09-06T09:19:37.361Z,2.30
2022-09-06T09:20:39.577Z,2.55
2022-09-06T09:21:42.577Z,2.40
2022-09-06T09:22:45.451Z,2.53
2022-09-06T09:23:52.799Z,3.00
2022-09-06T09:25:00.011Z,2.60
2022-09-06T09:26:07.187Z,3.00
2022-09-06T09:27:11.298Z,2.90
2022-09-06T09:28:18.579Z,2.42
2022-09-06T09:29:26.864Z,3.00
2022-09-06T09:30:50.965Z,2.25
2022-09-06T09:31:55.964Z,2.70
2022-09-06T09:32:58.193Z,2.80
2022-09-06T09:34:04.670Z,2.67
2022-09-06T09:35:24.424Z,2.80
2022-09-06T09:36:27.458Z,2.72
2022-09-06T09:37:46.522Z,2.72
2022-09-06T09:38:52.917Z,2.83
2022-09-06T09:39:57.986Z,4.15
2022-09-06T09:41:03.670Z,2.60
2022-09-06T09:42:05.907Z,2.72
2022-09-06T09:43:17.983Z,2.58
2022-09-06T09:44:22.537Z,2.30
2022-09-06T09:45:28.329Z,2.83
2022-09-06T09:46:34.166Z,3.20
2022-09-06T09:47:36.304Z,3.08
2022-09-06T09:48:40.340Z,3.10
2022-09-06T09:49:42.459Z,3.07
2022-09-06T09:50:47.085Z,2.90
2022-09-06T09:52:07.751Z,3.30
2022-09-06T09:53:11.602Z,3.33
2022-09-06T09:54:16.102Z,3.50
2022-09-06T09:55:23.434Z,3.20
2022-09-06T09:56:35.375Z,2.90
2022-09-06T09:57:46.909Z,3.13
2022-09-06T09:58:49.113Z,3.37
2022-09-06T09:59:55.022Z,3.20
2022-09-06T10:01:18.257Z,3.07
2022-09-06T10:02:27.938Z,3.00
2022-09-06T10:03:31.268Z,3.00
2022-09-06T10:04:45.782Z,3.30
2022-09-06T10:06:02.515Z,3.40
2022-09-06T10:07:14.601Z,3.42
2022-09-06T10:08:16.837Z,3.35
2022-09-06T10:09:22.703Z,4.20
2022-09-06T10:10:26.817Z,3.40
2022-09-06T10:11:41.677Z,3.08
2022-09-06T10:12:44.693Z,3.55
2022-09-06T10:13:48.044Z,3.40
2022-09-06T10:14:50.370Z,3.20
2022-09-06T10:15:54.783Z,2.75
2022-09-06T10:16:57.519Z,3.33
2022-09-06T10:18:00.768Z,3.10
2022-09-06T10:19:23.645Z,3.13
2022-09-06T10:20:34.269Z,2.65
2022-09-06T10:21:38.760Z,3.15
2022-09-06T10:22:50.866Z,3.42
2022-09-06T10:25:39.451Z,3.00
2022-09-06T10:26:48.386Z,3.38
2022-09-06T10:28:20.711Z,3.03
2022-09-06T10:29:33.553Z,2.83
2022-09-06T10:30:43.743Z,3.13
2022-09-06T10:32:00.259Z,3.20
2022-09-06T10:33:10.204Z,3.60
2022-09-06T10:34:45.643Z,3.38
2022-09-06T10:35:48.827Z,3.00
2022-09-06T10:37:08.501Z,3.28
2022-09-06T10:38:28.611Z,3.03
2022-09-06T10:39:41.625Z,3.50
2022-09-06T10:40:55.722Z,3.20
2022-09-06T10:42:11.349Z,3.43
2022-09-06T10:43:19.137Z,3.30
2022-09-06T10:44:33.866Z,3.50
2022-09-06T10:45:49.294Z,3.40
2022-09-06T10:47:00.978Z,3.20
2022-09-06T10:48:14.551Z,3.20
2022-09-06T10:49:20.103Z,3.30
2022-09-06T10:50:27.433Z,3.30
2022-09-06T10:51:37.323Z,2.70
2022-09-06T10:52:44.992Z,3.30
2022-09-06T10:53:52.831Z,3.00
2022-09-06T10:54:58.044Z,3.10
2022-09-06T10:56:07.146Z,3.53
2022-09-06T11:00:13.256Z,3.20
2022-09-06T11:01:33.387Z,3.30
2022-09-06T11:02:41.666Z,3.10
2022-09-06T11:06:32.267Z,3.67
2022-09-06T11:07:38.471Z,3.17
2022-09-06T11:08:51.247Z,3.22
2022-09-06T11:09:58.950Z,3.30
2022-09-06T11:11:08.306Z,2.80
2022-09-06T11:12:16.283Z,3.13
2022-09-06T11:13:20.001Z,3.20
2022-09-06T11:14:26.468Z,3.70
2022-09-06T11:15:34.876Z,3.00
2022-09-06T11:16:45.601Z,4.32
2022-09-06T11:17:53.399Z,3.28
2022-09-06T11:19:00.531Z,3.23
2022-09-06T11:20:06.657Z,3.13
2022-09-06T11:21:23.860Z,3.40
2022-09-06T11:22:59.674Z,3.80
2022-09-06T11:24:12.058Z,3.10
2022-09-06T11:25:36.957Z,3.30
2022-09-06T11:26:45.381Z,3.80
2022-09-06T11:27:57.803Z,3.10
2022-09-06T11:29:02.232Z,3.30
2022-09-06T11:30:06.847Z,3.20
2022-09-06T11:32:40.932Z,2.90
2022-09-06T11:33:44.217Z,3.50
2022-09-06T11:34:55.221Z,3.37
2022-09-06T11:36:17.789Z,3.60
2022-09-06T11:37:27.084Z,3.10
2022-09-06T11:38:30.182Z,3.00
2022-09-06T11:41:02.348Z,3.87
2022-09-06T11:42:09.174Z,3.57
2022-09-06T11:43:15.967Z,3.50
2022-09-06T11:44:53.165Z,3.33
2022-09-06T11:45:56.716Z,3.53
2022-09-06T11:47:00.965Z,3.50
2022-09-06T11:48:36.789Z,3.60
2022-09-06T11:49:41.823Z,3.90
2022-09-06T11:51:02.054Z,4.13
2022-09-06T11:52:44.082Z,3.40
2022-09-06T11:54:19.959Z,3.40
2022-09-06T11:55:31.309Z,3.57
2022-09-06T11:56:41.890Z,3.50
2022-09-06T11:57:46.286Z,3.50
2022-09-06T11:58:54.275Z,4.10
2022-09-06T12:00:01.084Z,3.57
2022-09-06T12:01:39.339Z,3.93
2022-09-06T12:02:46.161Z,3.50
2022-09-06T12:05:19.957Z,4.20
2022-09-06T12:06:23.484Z,3.70
2022-09-06T12:07:27.448Z,3.60
2022-09-06T12:08:38.161Z,3.87
2022-09-06T12:09:42.692Z,3.67
2022-09-06T12:10:57.636Z,3.53
2022-09-06T12:12:02.234Z,3.60
2022-09-06T12:13:34.437Z,3.87
2022-09-06T12:14:40.677Z,3.70
2022-09-06T12:15:46.466Z,3.40
2022-09-06T12:17:19.699Z,3.70
2022-09-06T12:18:57.947Z,3.37
2022-09-06T12:20:07.191Z,3.90
2022-09-06T12:21:30.138Z,3.60
2022-09-06T12:23:04.450Z,3.90
2022-09-06T12:24:07.743Z,4.00
2022-09-06T12:25:18.735Z,3.90
2022-09-06T12:26:49.719Z,4.23
2022-09-06T12:27:56.646Z,3.80
2022-09-06T12:29:00.634Z,3.70
2022-09-06T12:30:06.954Z,3.63
2022-09-06T12:31:29.362Z,3.70
2022-09-06T12:32:37.234Z,3.50
2022-09-06T12:33:39.526Z,3.33
2022-09-06T12:34:46.134Z,3.47
2022-09-06T12:35:57.143Z,3.50
2022-09-06T12:37:04.571Z,3.47
2022-09-06T12:38:13.395Z,3.57
2022-09-06T12:39:16.451Z,4.17
2022-09-06T12:40:20.407Z,3.60
2022-09-06T12:41:22.668Z,4.07
2022-09-06T12:42:26.270Z,3.30
2022-09-06T12:43:31.047Z,3.67
2022-09-06T12:44:35.654Z,4.10
2022-09-06T12:45:43.874Z,3.83
2022-09-06T12:46:49.773Z,3.87
2022-09-06T12:48:05.728Z,3.47
2022-09-06T12:49:10.371Z,3.90
2022-09-06T12:50:19.914Z,3.43
2022-09-06T12:51:23.544Z,3.80
2022-09-06T12:52:26.762Z,4.00
2022-09-06T12:53:31.975Z,4.10
2022-09-06T12:54:42.090Z,3.63
2022-09-06T12:55:45.044Z,3.80
2022-09-06T12:56:47.422Z,3.63
2022-09-06T12:57:52.911Z,3.80
2022-09-06T12:59:14.056Z,3.50
2022-09-06T13:00:17.903Z,3.43
2022-09-06T13:01:26.992Z,3.57
2022-09-06T13:02:37.825Z,3.70
2022-09-06T13:03:45.349Z,4.40
2022-09-06T13:04:51.257Z,3.60
2022-09-06T13:05:55.226Z,3.70
2022-09-06T13:06:59.550Z,3.90
2022-09-06T13:08:04.468Z,4.10
2022-09-06T13:09:11.301Z,3.90
2022-09-06T13:10:16.782Z,3.47
2022-09-06T13:11:27.882Z,3.93
2022-09-06T13:12:34.827Z,4.13
2022-09-06T13:13:37.557Z,4.00
2022-09-06T13:14:40.569Z,3.70
2022-09-06T13:15:47.692Z,3.77
2022-09-06T13:16:51.831Z,4.00
2022-09-06T13:17:56.059Z,3.37
2022-09-06T13:19:12.526Z,3.80
2022-09-06T13:20:22.556Z,4.00
2022-09-06T13:21:28.582Z,4.17
2022-09-06T13:22:40.438Z,4.50
2022-09-06T13:23:46.789Z,4.20
2022-09-06T13:24:56.861Z,3.70
2022-09-06T13:25:59.993Z,3.93
2022-09-06T13:27:22.659Z,4.30
2022-09-06T13:28:28.797Z,4.23
2022-09-06T13:29:31.905Z,4.33
2022-09-06T13:30:42.030Z,4.30
2022-09-06T13:31:46.482Z,4.20
2022-09-06T13:32:49.635Z,4.33
2022-09-06T13:33:57.159Z,4.03
2022-09-06T13:35:01.471Z,4.27
2022-09-06T13:36:16.679Z,3.80
2022-09-06T13:37:20.611Z,4.23
2022-09-06T13:38:32.660Z,4.10
2022-09-06T13:39:38.660Z,3.70
2022-09-06T13:42:08.319Z,4.20
2022-09-06T13:43:13.080Z,3.40
2022-09-06T13:44:22.001Z,4.30
2022-09-06T13:45:27.458Z,4.60
2022-09-06T13:46:31.078Z,3.90
2022-09-06T13:47:34.512Z,4.10
2022-09-06T13:48:37.148Z,4.13
2022-09-06T13:49:40.635Z,5.63
2022-09-06T13:50:43.279Z,4.00
2022-09-06T13:51:46.265Z,4.07
2022-09-06T13:52:49.445Z,3.90
2022-09-06T13:53:52.590Z,4.10
2022-09-06T13:54:54.652Z,3.80
2022-09-06T13:56:00.091Z,4.40
2022-09-06T13:57:02.895Z,3.50
2022-09-06T13:58:06.266Z,3.77
2022-09-06T13:59:10.490Z,4.10
2022-09-06T14:00:14.554Z,3.67
2022-09-06T14:01:17.104Z,4.00
2022-09-06T14:02:21.291Z,4.40
2022-09-06T14:03:26.834Z,4.00
2022-09-06T14:04:29.921Z,4.03
2022-09-06T14:05:32.204Z,3.67
2022-09-06T14:06:36.939Z,3.97
2022-09-06T14:07:39.784Z,3.73
2022-09-06T14:09:05.812Z,4.00
2022-09-06T14:10:06.844Z,4.60
2022-09-06T14:11:10.337Z,4.30
2022-09-06T14:12:13.827Z,4.00
2022-09-06T14:13:17.915Z,4.00
2022-09-06T14:14:20.963Z,4.60
2022-09-06T14:15:24.050Z,4.10
2022-09-06T14:16:26.313Z,3.77
2022-09-06T14:17:29.538Z,3.70
2022-09-06T14:18:32.269Z,3.80
2022-09-06T14:19:35.328Z,4.17
2022-09-06T14:20:38.280Z,3.77
2022-09-06T14:21:41.666Z,4.00
2022-09-06T14:22:43.872Z,3.77
2022-09-06T14:23:51.097Z,3.73
2022-09-06T14:24:55.402Z,4.20
2022-09-06T14:25:57.840Z,3.90
2022-09-06T14:27:02.261Z,3.60
2022-09-06T14:28:04.978Z,3.83
2022-09-06T14:29:09.845Z,4.43
2022-09-06T14:30:13.149Z,4.40
2022-09-06T14:31:18.115Z,4.00
2022-09-06T14:32:22.710Z,3.47
2022-09-06T14:33:25.146Z,3.67
2022-09-06T14:34:29.841Z,3.90
2022-09-06T14:35:32.400Z,3.43
2022-09-06T14:36:35.743Z,4.10
2022-09-06T14:37:38.058Z,3.90
2022-09-06T14:38:42.199Z,3.73
2022-09-06T14:39:45.351Z,3.47
2022-09-06T14:40:47.691Z,4.30
2022-09-06T14:41:50.768Z,3.67
2022-09-06T14:42:54.100Z,3.63
2022-09-06T14:43:58.580Z,3.80
2022-09-06T14:45:00.770Z,3.80
2022-09-06T14:46:05.653Z,3.80
2022-09-06T14:47:08.725Z,4.23
2022-09-06T14:48:11.026Z,3.83
2022-09-06T14:49:14.391Z,3.90
2022-09-06T14:50:16.855Z,4.07
2022-09-06T14:51:22.438Z,3.87
2022-09-06T14:52:24.643Z,3.90
2022-09-06T14:53:39.699Z,3.90
2022-09-06T14:54:43.024Z,4.30
2022-09-06T14:55:46.394Z,3.50
2022-09-06T14:56:49.753Z,3.80
2022-09-06T14:57:52.385Z,3.90
2022-09-06T14:59:00.064Z,4.10
2022-09-06T15:00:10.757Z,3.90
2022-09-06T15:01:16.693Z,3.73
2022-09-06T15:02:19.895Z,4.10
2022-09-06T15:03:21.907Z,4.10
2022-09-06T15:04:26.300Z,4.10
2022-09-06T15:05:28.662Z,3.93
2022-09-06T15:06:34.741Z,3.80
2022-09-06T15:07:38.148Z,3.93
2022-09-06T15:08:40.386Z,3.97
2022-09-06T15:09:43.308Z,3.90
2022-09-06T15:10:54.233Z,3.90
2022-09-06T15:11:57.612Z,3.50